createdAt,value
2023-12-10T00:00:52.917Z,13.73
2023-12-10T00:03:23.341Z,11.95
2023-12-10T00:06:04.100Z,11.48
2023-12-10T00:08:42.958Z,15.63
2023-12-10T00:11:14.723Z,19.35
2023-12-10T00:13:47.018Z,12.05
2023-12-10T00:16:17.678Z,14.05
2023-12-10T00:18:48.247Z,9.27
2023-12-10T00:21:19.651Z,9.15
2023-12-10T00:23:49.993Z,14.48
2023-12-10T00:26:20.157Z,12.00
2023-12-10T00:28:50.495Z,15.52
2023-12-10T00:31:20.915Z,11.18
2023-12-10T00:33:51.527Z,12.90
2023-12-10T00:36:21.418Z,12.35
2023-12-10T00:38:51.834Z,13.50
2023-12-10T00:41:22.093Z,13.48
2023-12-10T00:43:53.039Z,12.55
2023-12-10T00:46:23.554Z,12.85
2023-12-10T00:48:53.435Z,11.15
2023-12-10T00:51:25.345Z,11.50
2023-12-10T00:53:57.465Z,12.77
2023-12-10T00:56:27.602Z,12.30
2023-12-10T00:58:57.457Z,12.63
2023-12-10T01:01:27.878Z,10.88
2023-12-10T01:03:59.131Z,13.40
2023-12-10T01:06:29.643Z,8.48
2023-12-10T01:08:59.470Z,12.00
2023-12-10T01:11:30.023Z,13.68
2023-12-10T01:13:59.810Z,14.52
2023-12-10T01:16:30.151Z,12.75
2023-12-10T01:19:00.500Z,13.02
2023-12-10T01:21:31.337Z,12.85
2023-12-10T01:24:02.428Z,9.13
2023-12-10T01:26:33.047Z,14.48
2023-12-10T01:29:03.177Z,8.73
2023-12-10T01:31:38.205Z,15.07
2023-12-10T01:34:08.390Z,13.52
2023-12-10T01:36:39.339Z,13.30
2023-12-10T01:39:10.042Z,14.27
2023-12-10T01:41:40.623Z,11.60
2023-12-10T01:44:12.477Z,14.70
2023-12-10T01:46:42.865Z,13.45
2023-12-10T01:49:13.450Z,14.35
2023-12-10T01:51:46.408Z,11.73
2023-12-10T01:54:34.785Z,11.27
2023-12-10T01:57:07.452Z,19.10
2023-12-10T01:59:39.535Z,9.35
2023-12-10T02:02:10.209Z,15.13
2023-12-10T02:04:40.485Z,12.32
2023-12-10T02:07:10.864Z,12.43
2023-12-10T02:09:40.629Z,12.93
2023-12-10T02:12:11.061Z,14.77
2023-12-10T02:14:41.511Z,14.52
2023-12-10T02:17:12.043Z,15.60
2023-12-10T02:19:41.971Z,12.98
2023-12-10T02:22:16.375Z,15.10
2023-12-10T02:25:08.283Z,12.98
2023-12-10T02:27:39.941Z,12.65
2023-12-10T02:30:11.820Z,14.02
2023-12-10T02:32:42.233Z,12.20
2023-12-10T02:35:13.124Z,13.75
2023-12-10T02:37:44.355Z,13.82
2023-12-10T02:40:14.877Z,14.15
2023-12-10T02:42:46.209Z,13.02
2023-12-10T02:45:17.687Z,14.82
2023-12-10T02:47:48.465Z,10.20
2023-12-10T02:50:18.365Z,14.35
2023-12-10T02:52:49.298Z,13.20
2023-12-10T02:55:20.555Z,13.68
2023-12-10T02:57:51.927Z,13.35
2023-12-10T03:00:22.529Z,12.20
2023-12-10T03:02:52.399Z,13.60
2023-12-10T03:05:22.827Z,14.00
2023-12-10T03:07:53.703Z,14.15
2023-12-10T03:10:23.791Z,13.48
2023-12-10T03:12:53.557Z,14.27
2023-12-10T03:15:23.894Z,12.70
2023-12-10T03:17:54.388Z,14.73
2023-12-10T03:20:25.492Z,13.85
2023-12-10T03:22:55.483Z,12.48
2023-12-10T03:25:26.318Z,10.65
2023-12-10T03:27:57.552Z,13.82
2023-12-10T03:30:28.096Z,14.45
2023-12-10T03:32:58.925Z,14.52
2023-12-10T03:35:29.183Z,14.40
2023-12-10T03:37:59.477Z,15.00
2023-12-10T03:40:30.281Z,12.02
2023-12-10T03:43:00.056Z,15.52
2023-12-10T03:45:30.506Z,14.68
2023-12-10T03:48:01.248Z,14.77
2023-12-10T03:50:32.393Z,14.73
2023-12-10T03:53:02.894Z,14.98
2023-12-10T03:55:33.791Z,14.82
2023-12-10T03:58:04.009Z,14.27
2023-12-10T04:00:35.084Z,10.75
2023-12-10T04:03:05.759Z,14.63
2023-12-10T04:05:35.685Z,16.02
2023-12-10T04:08:06.611Z,9.43
2023-12-10T04:10:37.289Z,13.73
2023-12-10T04:13:07.525Z,14.48
2023-12-10T04:15:37.505Z,13.05
2023-12-10T04:18:07.746Z,15.60
2023-12-10T04:20:38.489Z,9.77
2023-12-10T04:23:09.372Z,10.50
2023-12-10T04:25:40.065Z,13.52
2023-12-10T04:28:10.356Z,10.98
2023-12-10T04:30:40.554Z,12.88
2023-12-10T04:33:11.223Z,13.45
2023-12-10T04:35:41.623Z,9.13
2023-12-10T04:38:11.348Z,13.73
2023-12-10T04:40:45.342Z,13.95
2023-12-10T04:43:15.924Z,13.32
2023-12-10T04:45:46.397Z,14.65
2023-12-10T04:48:17.060Z,11.02
2023-12-10T04:50:48.732Z,12.88
2023-12-10T04:53:19.705Z,14.90
2023-12-10T04:55:50.595Z,16.48
2023-12-10T04:58:20.372Z,15.82
2023-12-10T05:00:50.606Z,14.98
2023-12-10T05:03:22.045Z,13.10
2023-12-10T05:05:52.766Z,11.77
2023-12-10T05:08:22.540Z,13.70
2023-12-10T05:10:53.058Z,12.15
2023-12-10T05:13:23.852Z,15.40
2023-12-10T05:15:54.850Z,15.93
2023-12-10T05:18:26.080Z,15.70
2023-12-10T05:20:56.413Z,16.25
2023-12-10T05:23:26.550Z,14.95
2023-12-10T05:25:57.653Z,15.18
2023-12-10T05:28:28.262Z,14.98
2023-12-10T05:30:58.538Z,14.35
2023-12-10T05:33:28.404Z,14.90
2023-12-10T05:35:58.567Z,15.95
2023-12-10T05:38:28.786Z,15.07
2023-12-10T05:40:59.937Z,11.23
2023-12-10T05:43:30.131Z,14.10
2023-12-10T05:46:00.030Z,15.73
2023-12-10T05:48:33.320Z,15.23
2023-12-10T05:51:05.828Z,17.20
2023-12-10T05:53:36.898Z,15.43
2023-12-10T05:56:07.707Z,10.73
2023-12-10T05:58:37.910Z,14.40
2023-12-10T06:01:08.820Z,15.20
2023-12-10T06:03:40.156Z,10.98
2023-12-10T06:06:10.591Z,9.93
2023-12-10T06:08:40.775Z,7.35
2023-12-10T06:11:11.450Z,10.85
2023-12-10T06:13:42.862Z,15.27
2023-12-10T06:16:14.360Z,16.70
2023-12-10T06:18:44.372Z,13.27
2023-12-10T06:21:15.057Z,10.18
2023-12-10T06:23:45.845Z,12.07
2023-12-10T06:26:15.626Z,10.60
2023-12-10T06:28:45.904Z,13.05
2023-12-10T06:31:16.915Z,12.95
2023-12-10T06:33:47.998Z,14.23
2023-12-10T06:36:20.201Z,12.10
2023-12-10T06:38:50.397Z,11.10
2023-12-10T06:41:20.286Z,13.15
2023-12-10T06:43:50.619Z,14.80
2023-12-10T06:46:20.856Z,14.20
2023-12-10T06:48:51.284Z,11.82
2023-12-10T06:51:21.351Z,8.50
2023-12-10T06:53:51.459Z,12.70
2023-12-10T06:56:21.333Z,9.13
2023-12-10T06:58:52.116Z,13.85
2023-12-10T07:01:22.778Z,12.95
2023-12-10T07:03:52.630Z,9.05
2023-12-10T07:06:23.676Z,12.52
2023-12-10T07:08:54.310Z,13.52
2023-12-10T07:11:24.651Z,14.73
2023-12-10T07:13:55.678Z,14.98
2023-12-10T07:16:25.569Z,14.85
2023-12-10T07:18:57.052Z,14.82
2023-12-10T07:21:27.971Z,12.10
2023-12-10T07:23:58.108Z,15.00
2023-12-10T07:26:29.029Z,16.48
2023-12-10T07:29:00.404Z,16.40
2023-12-10T07:31:32.570Z,11.75
2023-12-10T07:34:02.712Z,16.50
2023-12-10T07:36:32.824Z,16.40
2023-12-10T07:39:03.857Z,16.40
2023-12-10T07:41:34.262Z,14.73
2023-12-10T07:44:05.609Z,15.90
2023-12-10T07:46:35.664Z,15.38
2023-12-10T07:49:05.620Z,16.25
2023-12-10T07:51:36.413Z,15.48
2023-12-10T07:54:06.766Z,17.67
2023-12-10T07:56:37.492Z,16.60
2023-12-10T07:59:08.032Z,17.05
2023-12-10T08:01:38.761Z,16.42
2023-12-10T08:04:09.126Z,17.67
2023-12-10T08:06:39.637Z,16.88
2023-12-10T08:09:10.048Z,15.70
2023-12-10T08:11:40.132Z,15.25
2023-12-10T08:14:11.986Z,12.60
2023-12-10T08:16:43.048Z,14.98
2023-12-10T08:19:13.956Z,16.58
2023-12-10T08:21:46.213Z,16.05
2023-12-10T08:24:17.238Z,15.95
2023-12-10T08:26:51.004Z,15.82
2023-12-10T08:29:21.718Z,17.23
2023-12-10T08:31:51.615Z,13.48
2023-12-10T08:34:22.488Z,17.30
2023-12-10T08:36:53.067Z,16.88
2023-12-10T08:39:24.274Z,13.15
2023-12-10T08:41:55.262Z,17.65
2023-12-10T08:44:27.925Z,12.57
2023-12-10T08:46:58.363Z,13.57
2023-12-10T08:49:29.107Z,13.40
2023-12-10T08:51:59.845Z,14.48
2023-12-10T08:54:29.656Z,16.98
2023-12-10T08:56:59.610Z,15.90
2023-12-10T08:59:30.454Z,12.40
2023-12-10T09:02:01.110Z,15.02
2023-12-10T09:04:31.022Z,16.17
2023-12-10T09:07:01.733Z,14.93
2023-12-10T09:09:31.583Z,14.85
2023-12-10T09:12:02.530Z,14.68
2023-12-10T09:14:33.420Z,14.13
2023-12-10T09:17:03.290Z,11.40
2023-12-10T09:19:34.286Z,14.45
2023-12-10T09:22:05.509Z,14.93
2023-12-10T09:24:36.031Z,11.95
2023-12-10T09:27:06.011Z,11.65
2023-12-10T09:29:40.669Z,13.05
2023-12-10T09:32:12.401Z,9.18
2023-12-10T09:34:44.687Z,13.35
2023-12-10T09:37:16.563Z,14.15
2023-12-10T09:39:47.865Z,14.38
2023-12-10T09:42:18.341Z,11.88
2023-12-10T09:44:48.550Z,8.95
2023-12-10T09:47:20.101Z,14.02
2023-12-10T09:49:50.840Z,12.52
2023-12-10T09:52:21.538Z,11.70
2023-12-10T09:54:55.330Z,12.63
2023-12-10T09:57:25.651Z,13.95
2023-12-10T09:59:55.508Z,12.15
2023-12-10T10:02:34.273Z,12.02
2023-12-10T10:05:09.845Z,12.75
2023-12-10T10:07:41.689Z,12.68
2023-12-10T10:10:14.128Z,11.65
2023-12-10T10:12:48.490Z,12.63
2023-12-10T10:15:31.868Z,9.77
2023-12-10T10:18:02.743Z,10.73
2023-12-10T10:20:32.590Z,11.68
2023-12-10T10:23:04.180Z,11.15
2023-12-10T10:25:34.897Z,10.90
2023-12-10T10:28:11.617Z,12.00
2023-12-10T10:30:41.781Z,6.90
2023-12-10T10:33:11.777Z,8.95
2023-12-10T10:35:42.807Z,14.15
2023-12-10T10:38:13.698Z,11.30
2023-12-10T10:40:43.528Z,11.48
2023-12-10T10:43:13.676Z,10.85
2023-12-10T10:45:43.689Z,12.00
2023-12-10T10:48:15.981Z,11.38
2023-12-10T10:50:47.456Z,11.90
2023-12-10T10:53:19.080Z,12.05
2023-12-10T10:55:51.115Z,13.52
2023-12-10T10:58:32.958Z,12.63
2023-12-10T11:01:04.140Z,13.20
2023-12-10T11:03:34.827Z,11.00
2023-12-10T11:06:06.874Z,11.68
2023-12-10T11:08:38.385Z,16.45
2023-12-10T11:11:08.792Z,9.95
2023-12-10T11:13:49.656Z,11.57
2023-12-10T11:16:19.572Z,8.93
2023-12-10T11:19:16.819Z,9.40
2023-12-10T11:21:48.842Z,9.73
2023-12-10T11:24:20.960Z,10.45
2023-12-10T11:26:51.326Z,9.20
2023-12-10T11:29:21.611Z,8.60
2023-12-10T11:31:52.680Z,8.60
2023-12-10T11:34:23.509Z,11.07
2023-12-10T11:36:53.846Z,9.55
2023-12-10T11:39:23.944Z,10.35
2023-12-10T11:41:59.913Z,9.55
2023-12-10T11:44:36.583Z,8.20
2023-12-10T11:47:07.559Z,9.02
2023-12-10T11:49:38.076Z,9.43
2023-12-10T11:52:09.481Z,9.25
2023-12-10T11:54:41.215Z,9.10
2023-12-10T11:57:11.715Z,6.00
2023-12-10T11:59:41.515Z,10.63
2023-12-10T12:02:11.888Z,7.18
2023-12-10T12:04:42.709Z,6.90
2023-12-10T12:07:30.748Z,7.53
2023-12-10T12:10:01.265Z,7.15
2023-12-10T12:12:31.480Z,7.25
2023-12-10T12:15:02.742Z,8.50
2023-12-10T12:17:33.366Z,12.40
2023-12-10T12:20:28.053Z,13.32
2023-12-10T12:22:58.201Z,9.07
2023-12-10T12:25:28.174Z,8.93
2023-12-10T12:27:59.293Z,7.88
2023-12-10T12:30:30.756Z,15.07
2023-12-10T12:33:01.231Z,7.88
2023-12-10T12:35:33.080Z,6.85
2023-12-10T12:38:03.216Z,10.85
2023-12-10T12:40:33.500Z,7.00
2023-12-10T12:43:04.628Z,7.90
2023-12-10T12:45:35.118Z,7.03
2023-12-10T12:48:05.248Z,12.98
2023-12-10T12:50:35.512Z,13.32
2023-12-10T12:53:07.384Z,7.15
2023-12-10T12:55:37.454Z,5.72
2023-12-10T12:58:08.067Z,5.40
2023-12-10T13:00:37.992Z,7.05
2023-12-10T13:03:08.594Z,6.95
2023-12-10T13:05:39.124Z,6.32
2023-12-10T13:08:11.496Z,7.25
2023-12-10T13:10:41.700Z,7.80
2023-12-10T13:13:11.647Z,7.18
2023-12-10T13:15:42.258Z,6.78
2023-12-10T13:18:14.271Z,8.07
2023-12-10T13:20:44.653Z,7.95
2023-12-10T13:23:14.450Z,7.32
2023-12-10T13:25:44.616Z,7.38
2023-12-10T13:28:15.834Z,9.73
2023-12-10T13:30:46.947Z,8.32
2023-12-10T13:33:17.325Z,8.35
2023-12-10T13:35:47.601Z,8.18
2023-12-10T13:38:18.201Z,8.82
2023-12-10T13:40:51.619Z,5.47
2023-12-10T13:43:23.126Z,7.00
2023-12-10T13:45:54.723Z,8.27
2023-12-10T13:48:25.228Z,5.60
2023-12-10T13:50:56.156Z,7.97
2023-12-10T13:53:27.359Z,6.88
2023-12-10T13:55:58.915Z,7.80
2023-12-10T13:58:28.799Z,7.88
2023-12-10T14:00:59.383Z,9.18
2023-12-10T14:03:30.688Z,7.93
2023-12-10T14:06:01.601Z,7.65
2023-12-10T14:08:31.716Z,10.23
2023-12-10T14:11:02.812Z,8.40
2023-12-10T14:13:32.978Z,6.75
2023-12-10T14:16:03.102Z,7.18
2023-12-10T14:18:33.276Z,7.10
2023-12-10T14:21:04.234Z,6.68
2023-12-10T14:23:36.053Z,7.05
2023-12-10T14:26:06.518Z,7.25
2023-12-10T14:28:36.344Z,7.13
2023-12-10T14:31:07.033Z,7.57
2023-12-10T14:33:39.265Z,7.55
2023-12-10T14:36:10.806Z,6.03
2023-12-10T14:38:40.694Z,5.45
2023-12-10T14:41:10.998Z,6.93
2023-12-10T14:43:40.748Z,6.47
2023-12-10T14:46:13.168Z,7.32
2023-12-10T14:48:44.224Z,7.20
2023-12-10T14:51:15.739Z,5.85
2023-12-10T14:53:46.344Z,6.43
2023-12-10T14:56:16.616Z,9.55
2023-12-10T14:58:47.148Z,8.02
2023-12-10T15:01:17.960Z,7.18
2023-12-10T15:03:48.475Z,7.22
2023-12-10T15:06:18.532Z,7.20
2023-12-10T15:08:49.156Z,7.43
2023-12-10T15:11:23.195Z,7.00
2023-12-10T15:13:53.803Z,8.10
2023-12-10T15:16:25.630Z,4.22
2023-12-10T15:18:56.900Z,7.45
2023-12-10T15:21:27.906Z,7.57
2023-12-10T15:23:58.031Z,7.60
2023-12-10T15:26:27.834Z,6.80
2023-12-10T15:28:58.972Z,6.72
2023-12-10T15:31:29.740Z,9.40
2023-12-10T15:34:00.114Z,6.15
2023-12-10T15:36:30.516Z,7.45
2023-12-10T15:39:00.395Z,7.60
2023-12-10T15:41:31.501Z,7.43
2023-12-10T15:44:02.146Z,10.02
2023-12-10T15:46:31.861Z,9.00
2023-12-10T15:49:03.356Z,8.93
2023-12-10T15:51:33.826Z,8.65
2023-12-10T15:54:04.804Z,7.53
2023-12-10T15:56:34.584Z,9.40
2023-12-10T15:59:05.203Z,9.63
2023-12-10T16:01:35.574Z,10.20
2023-12-10T16:04:10.044Z,11.65
2023-12-10T16:06:40.177Z,8.50
2023-12-10T16:09:10.081Z,7.85
2023-12-10T16:11:40.961Z,7.20
2023-12-10T16:14:13.422Z,11.30
2023-12-10T16:16:43.819Z,10.57
2023-12-10T16:19:13.900Z,10.20
2023-12-10T16:21:44.108Z,11.27
2023-12-10T16:24:14.429Z,10.32
2023-12-10T16:26:44.899Z,9.93
2023-12-10T16:29:15.289Z,10.82
2023-12-10T16:31:45.048Z,11.35
2023-12-10T16:34:16.342Z,12.10
2023-12-10T16:36:48.808Z,13.32
2023-12-10T16:39:19.054Z,8.80
2023-12-10T16:41:48.785Z,12.57
2023-12-10T16:44:19.230Z,10.77
2023-12-10T16:46:49.013Z,12.60
2023-12-10T16:49:19.866Z,12.27
2023-12-10T16:51:50.380Z,11.45
2023-12-10T16:54:20.477Z,11.73
2023-12-10T16:56:51.194Z,13.10
2023-12-10T16:59:22.978Z,14.50
2023-12-10T17:01:54.908Z,16.15
2023-12-10T17:04:25.301Z,17.30
2023-12-10T17:06:55.164Z,15.63
2023-12-10T17:09:25.430Z,19.38
2023-12-10T17:11:57.585Z,18.65
2023-12-10T17:14:29.140Z,19.70
2023-12-10T17:16:59.888Z,19.20
2023-12-10T17:19:32.050Z,18.90
2023-12-10T17:22:02.358Z,17.92
2023-12-10T17:24:32.925Z,16.88
2023-12-10T17:27:03.518Z,17.17
2023-12-10T17:29:33.842Z,12.93
2023-12-10T17:32:04.081Z,19.60
2023-12-10T17:34:34.528Z,13.00
2023-12-10T17:37:06.659Z,21.58
2023-12-10T17:39:37.643Z,20.50
2023-12-10T17:42:08.013Z,24.00
2023-12-10T17:44:47.325Z,28.33
2023-12-10T17:47:25.514Z,24.10
2023-12-10T17:49:55.811Z,28.85
2023-12-10T17:52:25.692Z,26.17
2023-12-10T17:54:55.822Z,21.63
2023-12-10T17:57:26.122Z,19.90
2023-12-10T17:59:57.157Z,20.92
2023-12-10T18:02:27.498Z,19.63
2023-12-10T18:04:57.459Z,22.95
2023-12-10T18:07:28.517Z,15.40
2023-12-10T18:09:59.094Z,14.88
2023-12-10T18:12:29.380Z,13.90
2023-12-10T18:14:59.830Z,13.20
2023-12-10T18:17:31.012Z,12.50
2023-12-10T18:20:02.334Z,13.40
2023-12-10T18:22:33.118Z,13.25
2023-12-10T18:25:04.828Z,15.00
2023-12-10T18:27:39.047Z,17.05
2023-12-10T18:30:10.162Z,18.73
2023-12-10T18:32:41.083Z,17.50
2023-12-10T18:35:11.818Z,18.33
2023-12-10T18:37:41.667Z,16.38
2023-12-10T18:40:12.967Z,12.10
2023-12-10T18:42:44.190Z,17.02
2023-12-10T18:45:14.407Z,14.82
2023-12-10T18:47:44.332Z,16.65
2023-12-10T18:50:15.523Z,10.88
2023-12-10T18:52:46.380Z,14.63
2023-12-10T18:55:17.813Z,12.98
2023-12-10T18:57:47.981Z,16.98
2023-12-10T19:00:19.923Z,15.07
2023-12-10T19:02:51.119Z,15.48
2023-12-10T19:05:22.577Z,15.05
2023-12-10T19:07:52.907Z,16.75
2023-12-10T19:10:23.239Z,11.52
2023-12-10T19:12:54.025Z,11.18
2023-12-10T19:15:24.311Z,16.83
2023-12-10T19:17:54.784Z,16.92
2023-12-10T19:20:28.420Z,13.18
2023-12-10T19:22:59.025Z,10.90
2023-12-10T19:25:30.144Z,14.63
2023-12-10T19:28:00.349Z,14.40
2023-12-10T19:30:30.841Z,11.43
2023-12-10T19:33:02.881Z,15.63
2023-12-10T19:35:33.984Z,14.95
2023-12-10T19:38:05.364Z,15.88
2023-12-10T19:40:35.931Z,14.13
2023-12-10T19:43:08.328Z,10.52
2023-12-10T19:45:38.982Z,17.88
2023-12-10T19:48:10.046Z,16.25
2023-12-10T19:50:44.784Z,17.70
2023-12-10T19:53:15.770Z,19.42
2023-12-10T19:55:49.050Z,13.35
2023-12-10T19:58:20.302Z,16.92
2023-12-10T20:00:50.345Z,17.80
2023-12-10T20:03:20.510Z,14.85
2023-12-10T20:05:50.826Z,16.35
2023-12-10T20:08:21.354Z,14.18
2023-12-10T20:10:53.053Z,13.70
2023-12-10T20:13:23.526Z,10.57
2023-12-10T20:15:54.026Z,12.93
2023-12-10T20:18:25.980Z,13.18
2023-12-10T20:20:56.908Z,10.35
2023-12-10T20:23:27.580Z,13.48
2023-12-10T20:25:59.842Z,11.80
2023-12-10T20:28:31.153Z,13.15
2023-12-10T20:31:01.336Z,12.77
2023-12-10T20:33:35.122Z,16.65
2023-12-10T20:36:06.380Z,10.43
2023-12-10T20:38:37.897Z,11.90
2023-12-10T20:41:09.624Z,10.90
2023-12-10T20:43:40.403Z,8.70
2023-12-10T20:46:11.150Z,11.82
2023-12-10T20:48:42.611Z,14.90
2023-12-10T20:51:13.108Z,15.40
2023-12-10T20:53:42.888Z,15.32
2023-12-10T20:56:13.536Z,19.63
2023-12-10T20:58:44.022Z,12.30
2023-12-10T21:01:15.068Z,13.85
2023-12-10T21:03:45.283Z,13.95
2023-12-10T21:06:17.268Z,13.52
2023-12-10T21:08:48.343Z,12.25
2023-12-10T21:11:21.399Z,14.68
2023-12-10T21:13:52.026Z,13.48
2023-12-10T21:16:23.356Z,10.40
2023-12-10T21:18:53.921Z,12.05
2023-12-10T21:21:24.626Z,13.52
2023-12-10T21:23:54.334Z,14.70
2023-12-10T21:26:25.029Z,11.98
2023-12-10T21:28:56.228Z,11.85
2023-12-10T21:31:26.572Z,14.75
2023-12-10T21:33:56.479Z,12.93
2023-12-10T21:36:27.043Z,11.88
2023-12-10T21:38:57.383Z,12.80
2023-12-10T21:41:28.442Z,13.35
2023-12-10T21:43:58.411Z,16.05
2023-12-10T21:46:29.882Z,13.38
2023-12-10T21:49:01.113Z,12.50
2023-12-10T21:51:32.344Z,13.43
2023-12-10T21:54:08.411Z,11.15
2023-12-10T21:56:42.498Z,12.13
2023-12-10T21:59:13.009Z,13.18
2023-12-10T22:01:44.516Z,13.10
2023-12-10T22:04:14.614Z,13.18
2023-12-10T22:06:44.828Z,9.70
2023-12-10T22:09:15.210Z,15.25
2023-12-10T22:11:46.002Z,14.68
2023-12-10T22:14:17.750Z,13.23
2023-12-10T22:16:47.746Z,16.27
2023-12-10T22:19:17.854Z,14.45
2023-12-10T22:21:49.662Z,15.02
2023-12-10T22:24:20.655Z,16.65
2023-12-10T22:26:50.952Z,17.60
2023-12-10T22:29:20.664Z,16.10
2023-12-10T22:31:51.224Z,17.77
2023-12-10T22:34:21.916Z,18.52
2023-12-10T22:36:52.820Z,15.52
2023-12-10T22:39:22.716Z,17.35
2023-12-10T22:41:53.417Z,20.48
2023-12-10T22:44:24.078Z,18.13
2023-12-10T22:46:55.063Z,23.15
2023-12-10T22:49:26.137Z,21.45
2023-12-10T22:51:57.093Z,18.27
2023-12-10T22:54:27.207Z,19.63
2023-12-10T22:56:57.679Z,19.65
2023-12-10T22:59:28.394Z,21.55
2023-12-10T23:01:59.066Z,19.33
2023-12-10T23:04:29.969Z,20.17
2023-12-10T23:07:01.143Z,19.40
2023-12-10T23:09:31.818Z,21.83
2023-12-10T23:12:01.807Z,16.80
2023-12-10T23:14:33.072Z,13.02
2023-12-10T23:17:04.006Z,22.80
2023-12-10T23:19:35.224Z,12.50
2023-12-10T23:22:05.790Z,20.35
2023-12-10T23:24:35.654Z,18.58
2023-12-10T23:27:06.284Z,21.73
2023-12-10T23:29:36.802Z,19.27
2023-12-10T23:32:07.443Z,16.73
2023-12-10T23:34:37.428Z,19.40
2023-12-10T23:37:08.266Z,23.10
2023-12-10T23:39:39.611Z,20.45
2023-12-10T23:42:09.692Z,15.65
2023-12-10T23:44:39.637Z,28.73
2023-12-10T23:47:11.693Z,18.85
2023-12-10T23:49:43.143Z,17.98
2023-12-10T23:52:13.629Z,16.25
2023-12-10T23:54:43.592Z,18.52
2023-12-10T23:57:15.869Z,13.77
2023-12-10T23:59:46.297Z,15.43
